Terminal Aerodrome Forecast
Issued by NWS Indianapolis, IN

Home | Current Version | Previous Version | Text Only | Print | Product List | Glossary On
Versions: 1 2 3 4 5 6 7 8 9 10 11 12 13 14 15 16 17 18 19 20 21 22 23 24 25 26 27
775
FTUS43 KIND 141124
TAFIND
TAF
KIND 141124Z 1412/1518 11007KT 6SM BR VCSH SCT035 OVC060
     FM141330 12010KT 3SM -SN BR SCT025 OVC050
      TEMPO 1416/1418 1 1/2SM -SN BR OVC020
     FM141800 12014KT 1/2SM SN FZFG OVC007
     FM150000 14010KT 2SM -SHSN BR OVC009
     FM150800 19008KT 5SM -SHSN BR OVC015=

USA.gov is the U.S. government's official web portal to all federal, state and local government web resources and services.